createdAt,value
2018-02-19T00:00:49.055Z,77.70
2018-02-19T00:03:15.299Z,77.60
2018-02-19T00:05:41.535Z,77.60
2018-02-19T00:08:07.877Z,77.10
2018-02-19T00:10:34.204Z,77.50
2018-02-19T00:13:00.546Z,77.30
2018-02-19T00:15:26.844Z,77.60
2018-02-19T00:17:53.107Z,77.40
2018-02-19T00:20:19.769Z,77.40
2018-02-19T00:22:46.409Z,76.80
2018-02-19T00:25:12.999Z,76.40
2018-02-19T00:27:39.355Z,76.40
2018-02-19T00:30:05.582Z,76.40
2018-02-19T00:32:31.927Z,76.80
2018-02-19T00:34:58.202Z,76.00
2018-02-19T00:37:24.405Z,75.60
2018-02-19T00:39:50.728Z,76.40
2018-02-19T00:42:17.055Z,76.90
2018-02-19T00:44:43.624Z,77.70
2018-02-19T00:47:09.901Z,77.70
2018-02-19T00:49:36.159Z,77.20
2018-02-19T00:52:02.458Z,78.10
2018-02-19T00:54:28.688Z,77.40
2018-02-19T00:56:54.995Z,77.30
2018-02-19T00:59:21.189Z,77.70
2018-02-19T01:01:48.061Z,77.60
2018-02-19T01:04:14.343Z,77.90
2018-02-19T01:06:40.595Z,78.30
2018-02-19T01:09:06.861Z,77.60
2018-02-19T01:11:33.065Z,77.00
2018-02-19T01:13:59.327Z,76.90
2018-02-19T01:16:25.537Z,78.70
2018-02-19T01:18:51.736Z,78.70
2018-02-19T01:21:17.999Z,78.20
2018-02-19T01:23:44.293Z,78.40
2018-02-19T01:26:10.525Z,78.50
2018-02-19T01:28:36.708Z,79.20
2018-02-19T01:31:02.976Z,79.10
2018-02-19T01:33:29.207Z,78.60
2018-02-19T01:35:55.425Z,78.30
2018-02-19T01:38:21.676Z,78.60
2018-02-19T01:40:48.046Z,78.70
2018-02-19T01:43:14.654Z,77.70
2018-02-19T01:45:40.938Z,77.70
2018-02-19T01:48:07.160Z,77.70
2018-02-19T01:50:33.409Z,78.00
2018-02-19T01:52:59.737Z,78.20
2018-02-19T01:55:25.922Z,77.40
2018-02-19T01:57:52.221Z,76.80
2018-02-19T02:00:18.459Z,77.10
2018-02-19T02:02:44.715Z,78.20
2018-02-19T02:05:11.358Z,78.00
2018-02-19T02:07:37.750Z,78.00
2018-02-19T02:10:03.990Z,77.20
2018-02-19T02:12:30.280Z,77.60
2018-02-19T02:14:56.516Z,77.50
2018-02-19T02:17:22.730Z,76.70
2018-02-19T02:19:49.098Z,77.20
2018-02-19T02:22:15.336Z,77.00
2018-02-19T02:24:41.555Z,78.00
2018-02-19T02:27:08.065Z,77.40
2018-02-19T02:29:34.391Z,78.00
2018-02-19T02:32:00.608Z,77.50
2018-02-19T02:34:27.683Z,77.10
2018-02-19T02:36:53.924Z,77.60
2018-02-19T02:39:20.162Z,77.10
2018-02-19T02:41:46.490Z,77.10
2018-02-19T02:44:12.766Z,76.60
2018-02-19T02:46:39.821Z,77.40
2018-02-19T02:49:06.085Z,79.10
2018-02-19T02:51:32.444Z,79.20
2018-02-19T02:53:58.656Z,78.30
2018-02-19T02:56:24.917Z,78.00
2018-02-19T02:58:51.196Z,78.50
2018-02-19T03:01:17.426Z,78.30
2018-02-19T03:03:43.628Z,78.10
2018-02-19T03:06:09.846Z,77.80
2018-02-19T03:08:36.123Z,77.80
2018-02-19T03:11:02.349Z,77.20
2018-02-19T03:13:28.562Z,77.50
2018-02-19T03:15:54.780Z,78.30
2018-02-19T03:18:21.020Z,78.80
2018-02-19T03:20:47.208Z,79.90
2018-02-19T03:23:13.483Z,79.90
2018-02-19T03:25:39.781Z,79.10
2018-02-19T03:28:06.013Z,79.00
2018-02-19T03:30:32.216Z,79.30
2018-02-19T03:32:58.451Z,79.00
2018-02-19T03:35:24.701Z,78.80
2018-02-19T03:37:50.900Z,78.50
2018-02-19T03:40:17.115Z,78.70
2018-02-19T03:42:44.127Z,78.70
2018-02-19T03:45:10.378Z,78.70
2018-02-19T03:47:36.565Z,78.40
2018-02-19T03:50:02.920Z,78.50
2018-02-19T03:52:29.156Z,78.90
2018-02-19T03:54:55.446Z,78.80
2018-02-19T03:57:21.691Z,78.50
2018-02-19T03:59:47.907Z,78.60
2018-02-19T04:02:14.143Z,79.00
2018-02-19T04:04:40.407Z,79.10
2018-02-19T04:07:06.991Z,78.20
2018-02-19T04:09:33.183Z,78.20
2018-02-19T04:11:59.519Z,78.30
2018-02-19T04:14:26.111Z,78.40
2018-02-19T04:16:52.421Z,78.40
2018-02-19T04:19:18.696Z,77.80
2018-02-19T04:21:44.900Z,78.80
2018-02-19T04:24:11.104Z,78.50
2018-02-19T04:26:37.372Z,77.90
2018-02-19T04:29:03.589Z,77.10
2018-02-19T04:31:29.855Z,78.10
2018-02-19T04:33:56.499Z,76.60
2018-02-19T04:36:22.747Z,76.60
2018-02-19T04:38:49.562Z,77.40
2018-02-19T04:41:15.844Z,77.40
2018-02-19T04:43:42.168Z,77.20
2018-02-19T04:49:08.217Z,77.10
2018-02-19T04:51:34.524Z,78.60
2018-02-19T04:54:00.785Z,79.00
2018-02-19T04:56:26.994Z,79.20
2018-02-19T04:58:53.361Z,78.90
2018-02-19T05:01:19.638Z,79.00
2018-02-19T05:03:45.873Z,78.40
2018-02-19T05:06:12.092Z,78.80
2018-02-19T05:08:38.481Z,78.20
2018-02-19T05:11:04.750Z,77.30
2018-02-19T05:13:30.978Z,77.70
2018-02-19T05:15:57.259Z,77.20
2018-02-19T05:18:23.527Z,76.70
2018-02-19T05:20:49.931Z,77.70
2018-02-19T05:23:16.517Z,78.30
2018-02-19T05:25:42.809Z,78.30
2018-02-19T05:28:09.459Z,78.50
2018-02-19T05:30:35.655Z,78.50
2018-02-19T05:33:01.886Z,78.60
2018-02-19T05:35:28.770Z,77.60
2018-02-19T05:37:54.963Z,77.60
2018-02-19T05:40:21.613Z,77.90
2018-02-19T05:42:48.511Z,78.00
2018-02-19T05:45:14.720Z,78.00
2018-02-19T05:47:40.934Z,78.20
2018-02-19T05:50:07.174Z,78.30
2018-02-19T05:52:33.402Z,78.20
2018-02-19T05:54:59.740Z,77.40
2018-02-19T05:57:26.014Z,78.80
2018-02-19T05:59:52.650Z,79.40
2018-02-19T06:02:19.275Z,78.90
2018-02-19T06:04:45.536Z,78.90
2018-02-19T06:07:11.892Z,78.10
2018-02-19T06:09:40.355Z,77.90
2018-02-19T06:12:06.690Z,77.90
2018-02-19T06:14:33.263Z,77.30
2018-02-19T06:16:59.495Z,76.90
2018-02-19T06:19:25.695Z,76.50
2018-02-19T06:21:51.940Z,76.50
2018-02-19T06:24:18.154Z,75.50
2018-02-19T06:26:44.364Z,76.70
2018-02-19T06:29:10.645Z,76.80
2018-02-19T06:31:36.918Z,76.40
2018-02-19T06:34:03.140Z,76.40
2018-02-19T06:36:29.456Z,77.10
2018-02-19T06:38:55.731Z,77.10
2018-02-19T06:41:21.997Z,76.60
2018-02-19T06:43:48.691Z,77.90
2018-02-19T06:46:15.079Z,77.90
2018-02-19T06:48:41.713Z,77.60
2018-02-19T06:51:09.216Z,77.90
2018-02-19T06:53:35.499Z,77.90
2018-02-19T06:56:02.109Z,77.70
2018-02-19T06:58:28.338Z,77.70
2018-02-19T07:00:54.657Z,77.80
2018-02-19T07:03:20.936Z,77.50
2018-02-19T07:05:47.523Z,77.70
2018-02-19T07:08:13.819Z,77.70
2018-02-19T07:10:40.078Z,77.60
2018-02-19T07:13:06.343Z,77.90
2018-02-19T07:15:32.923Z,77.40
2018-02-19T07:17:59.305Z,77.40
2018-02-19T07:20:25.557Z,76.90
2018-02-19T07:22:51.814Z,76.70
2018-02-19T07:25:18.013Z,76.50
2018-02-19T07:27:44.285Z,75.80
2018-02-19T07:30:10.498Z,75.90
2018-02-19T07:32:36.745Z,76.50
2018-02-19T07:35:03.020Z,76.00
2018-02-19T07:37:29.606Z,76.50
2018-02-19T07:39:55.815Z,76.50
2018-02-19T07:42:22.406Z,76.40
2018-02-19T07:44:48.626Z,76.60
2018-02-19T07:47:15.003Z,76.00
2018-02-19T07:49:41.525Z,75.00
2018-02-19T07:52:07.863Z,74.80
2018-02-19T07:54:34.135Z,74.70
2018-02-19T07:57:00.348Z,75.50
2018-02-19T07:59:27.028Z,76.00
2018-02-19T08:01:53.312Z,75.70
2018-02-19T08:04:19.570Z,74.60
2018-02-19T08:06:45.864Z,75.70
2018-02-19T08:09:12.095Z,76.80
2018-02-19T08:11:38.385Z,77.00
2018-02-19T08:14:04.608Z,76.70
2018-02-19T08:16:30.826Z,75.00
2018-02-19T08:18:57.092Z,75.30
2018-02-19T08:21:23.316Z,74.80
2018-02-19T08:23:49.562Z,74.20
2018-02-19T08:26:15.740Z,73.80
2018-02-19T08:28:41.979Z,74.90
2018-02-19T08:31:08.331Z,75.30
2018-02-19T08:33:34.637Z,74.00
2018-02-19T08:36:00.892Z,74.90
2018-02-19T08:38:27.134Z,74.80
2018-02-19T08:40:53.313Z,74.10
2018-02-19T08:43:19.560Z,74.50
2018-02-19T08:45:45.811Z,74.40
2018-02-19T08:48:12.098Z,74.80
2018-02-19T08:50:38.835Z,74.80
2018-02-19T08:53:05.122Z,74.80
2018-02-19T08:55:31.378Z,73.60
2018-02-19T08:57:57.628Z,73.60
2018-02-19T09:00:24.554Z,71.60
2018-02-19T09:02:50.761Z,71.70
2018-02-19T09:05:17.095Z,72.00
2018-02-19T09:07:43.325Z,72.50
2018-02-19T09:10:09.569Z,71.60
2018-02-19T09:12:35.986Z,70.60
2018-02-19T09:15:02.303Z,70.70
2018-02-19T09:17:28.582Z,70.90
2018-02-19T09:19:55.237Z,70.60
2018-02-19T09:22:21.490Z,70.60
2018-02-19T09:24:47.673Z,71.60
2018-02-19T09:27:14.252Z,71.50
2018-02-19T09:29:40.586Z,71.50
2018-02-19T09:32:06.804Z,71.70
2018-02-19T09:34:33.050Z,71.50
2018-02-19T09:36:59.284Z,71.10
2018-02-19T09:39:25.490Z,71.10
2018-02-19T09:41:51.687Z,70.90
2018-02-19T09:44:17.961Z,71.50
2018-02-19T09:46:44.237Z,71.60
2018-02-19T09:49:10.854Z,71.70
2018-02-19T09:51:37.379Z,71.80
2018-02-19T09:54:03.601Z,71.70
2018-02-19T09:56:29.898Z,70.80
2018-02-19T09:58:56.206Z,70.60
2018-02-19T10:01:22.798Z,69.60
2018-02-19T10:03:49.225Z,69.60
2018-02-19T10:06:15.498Z,69.50
2018-02-19T10:08:42.144Z,70.70
2018-02-19T10:11:09.571Z,70.10
2018-02-19T10:13:35.846Z,70.10
2018-02-19T10:16:02.048Z,68.80
2018-02-19T10:18:28.649Z,69.00
2018-02-19T10:20:54.964Z,69.00
2018-02-19T10:23:21.302Z,69.30
2018-02-19T10:25:47.525Z,68.80
2018-02-19T10:28:13.837Z,68.60
2018-02-19T10:30:40.119Z,69.00
2018-02-19T10:33:06.434Z,70.80
2018-02-19T10:35:32.703Z,71.30
2018-02-19T10:37:58.945Z,70.50
2018-02-19T10:40:25.544Z,69.70
2018-02-19T10:42:51.826Z,69.50
2018-02-19T10:45:18.091Z,69.40
2018-02-19T10:47:44.369Z,69.00
2018-02-19T10:50:10.576Z,69.10
2018-02-19T10:52:36.957Z,69.20
2018-02-19T10:55:03.262Z,68.40
2018-02-19T10:57:29.541Z,69.80
2018-02-19T10:59:56.713Z,70.40
2018-02-19T11:02:23.471Z,70.00
2018-02-19T11:04:49.740Z,70.10
2018-02-19T11:07:15.977Z,69.30
2018-02-19T11:09:42.259Z,69.00
2018-02-19T11:12:08.501Z,67.90
2018-02-19T11:14:34.783Z,69.80
2018-02-19T11:17:01.073Z,69.50
2018-02-19T11:19:27.299Z,70.40
2018-02-19T11:21:53.522Z,70.10
2018-02-19T11:24:19.770Z,70.30
2018-02-19T11:26:45.979Z,69.70
2018-02-19T11:29:12.298Z,69.70
2018-02-19T11:31:38.527Z,69.20
2018-02-19T11:34:04.915Z,68.60
2018-02-19T11:36:31.246Z,68.60
2018-02-19T11:38:57.881Z,68.30
2018-02-19T11:41:24.094Z,68.30
2018-02-19T11:43:50.334Z,68.10
2018-02-19T11:46:16.589Z,66.50
2018-02-19T11:48:43.175Z,67.30
2018-02-19T11:51:09.507Z,67.30
2018-02-19T11:53:35.764Z,67.90
2018-02-19T11:56:01.975Z,68.70
2018-02-19T11:58:28.269Z,69.00
2018-02-19T12:00:54.515Z,67.90
2018-02-19T12:03:20.725Z,68.80
2018-02-19T12:05:46.970Z,68.40
2018-02-19T12:08:13.245Z,69.00
2018-02-19T12:10:40.872Z,67.50
2018-02-19T12:13:07.117Z,67.50
2018-02-19T12:15:33.398Z,68.60
2018-02-19T12:17:59.665Z,68.40
2018-02-19T12:20:25.927Z,67.20
2018-02-19T12:22:52.196Z,67.30
2018-02-19T12:25:18.454Z,66.80
2018-02-19T12:27:44.681Z,66.70
2018-02-19T12:30:10.980Z,67.50
2018-02-19T12:32:37.245Z,67.80
2018-02-19T12:35:03.480Z,68.50
2018-02-19T12:37:29.727Z,68.60
2018-02-19T12:39:56.296Z,68.80
2018-02-19T12:42:22.575Z,68.60
2018-02-19T12:44:48.831Z,70.30
2018-02-19T12:47:15.083Z,70.20
2018-02-19T12:49:41.343Z,69.60
2018-02-19T12:52:07.607Z,69.80
2018-02-19T12:54:34.296Z,69.50
2018-02-19T12:57:00.506Z,69.50
2018-02-19T12:59:26.744Z,69.30
2018-02-19T13:01:53.458Z,69.50
2018-02-19T13:04:19.694Z,69.50
2018-02-19T13:06:45.969Z,69.40
2018-02-19T13:09:12.665Z,70.80
2018-02-19T13:11:38.974Z,70.80
2018-02-19T13:14:05.229Z,70.10
2018-02-19T13:16:31.486Z,70.30
2018-02-19T13:18:57.775Z,69.10
2018-02-19T13:21:24.020Z,71.50
2018-02-19T13:23:50.254Z,71.20
2018-02-19T13:26:16.528Z,70.10
2018-02-19T13:28:42.775Z,70.40
2018-02-19T13:31:09.984Z,70.30
2018-02-19T13:33:36.284Z,69.20
2018-02-19T13:36:03.281Z,69.90
2018-02-19T13:38:29.887Z,70.10
2018-02-19T13:40:56.170Z,70.10
2018-02-19T13:43:22.449Z,69.50
2018-02-19T13:45:48.697Z,70.00
2018-02-19T13:48:15.304Z,68.90
2018-02-19T13:50:41.513Z,68.90
2018-02-19T13:53:07.766Z,68.60
2018-02-19T13:55:34.031Z,69.10
2018-02-19T13:58:00.616Z,70.30
2018-02-19T14:00:26.841Z,70.40
2018-02-19T14:02:53.105Z,68.00
2018-02-19T14:05:19.427Z,69.00
2018-02-19T14:07:45.729Z,68.40
2018-02-19T14:10:11.984Z,69.00
2018-02-19T14:12:38.367Z,70.80
2018-02-19T14:15:04.582Z,71.20
2018-02-19T14:17:31.102Z,71.00
2018-02-19T14:19:57.715Z,70.10
2018-02-19T14:22:23.953Z,70.10
2018-02-19T14:24:50.833Z,69.60
2018-02-19T14:27:17.707Z,68.50
2018-02-19T14:29:44.550Z,69.30
2018-02-19T14:32:10.833Z,69.20
2018-02-19T14:34:37.025Z,71.00
2018-02-19T14:37:03.315Z,71.70
2018-02-19T14:39:29.549Z,71.00
2018-02-19T14:41:55.763Z,72.10
2018-02-19T14:44:22.480Z,72.20
2018-02-19T14:46:49.072Z,73.20
2018-02-19T14:49:15.332Z,73.20
2018-02-19T14:51:41.636Z,72.10
2018-02-19T14:54:07.906Z,72.40
2018-02-19T14:56:34.149Z,71.90
2018-02-19T14:59:00.399Z,72.10
2018-02-19T15:01:26.689Z,72.40
2018-02-19T15:03:53.277Z,73.40
2018-02-19T15:06:19.517Z,73.40
2018-02-19T15:08:45.781Z,74.30
2018-02-19T15:11:12.377Z,73.00
2018-02-19T15:13:38.621Z,73.00
2018-02-19T15:16:04.863Z,72.50
2018-02-19T15:18:31.097Z,71.70
2018-02-19T15:20:57.685Z,72.10
2018-02-19T15:23:25.261Z,72.10
2018-02-19T15:25:52.222Z,72.70
2018-02-19T15:28:18.476Z,72.50
2018-02-19T15:30:45.136Z,72.70
2018-02-19T15:33:11.389Z,72.70
2018-02-19T15:35:37.682Z,72.60
2018-02-19T15:38:04.060Z,72.30
2018-02-19T15:40:30.284Z,72.10
2018-02-19T15:42:56.601Z,72.30
2018-02-19T15:45:22.823Z,71.50
2018-02-19T15:47:49.135Z,71.20
2018-02-19T15:50:15.405Z,70.90
2018-02-19T15:52:41.661Z,71.70
2018-02-19T15:55:07.982Z,71.70
2018-02-19T15:57:34.245Z,71.50
2018-02-19T16:00:00.931Z,72.00
2018-02-19T16:02:27.289Z,72.00
2018-02-19T16:04:54.028Z,73.90
2018-02-19T16:07:20.402Z,73.90
2018-02-19T16:09:46.720Z,73.70
2018-02-19T16:12:12.975Z,74.70
2018-02-19T16:14:39.452Z,74.70
2018-02-19T16:17:06.135Z,74.50
2018-02-19T16:19:32.374Z,74.50
2018-02-19T16:21:58.632Z,73.90
2018-02-19T16:24:24.888Z,74.10
2018-02-19T16:26:51.118Z,74.50
2018-02-19T16:29:17.367Z,75.20
2018-02-19T16:31:43.638Z,75.00
2018-02-19T16:34:10.340Z,75.30
2018-02-19T16:36:36.590Z,74.80
2018-02-19T16:39:02.998Z,74.50
2018-02-19T16:41:29.259Z,75.70
2018-02-19T16:43:55.504Z,76.50
2018-02-19T16:46:21.762Z,76.00
2018-02-19T16:48:48.438Z,74.80
2018-02-19T16:51:14.653Z,74.80
2018-02-19T16:53:40.920Z,74.80
2018-02-19T16:56:07.143Z,74.10
2018-02-19T16:58:33.379Z,73.70
2018-02-19T17:00:59.677Z,74.20
2018-02-19T17:03:25.936Z,74.50
2018-02-19T17:05:52.210Z,74.50
2018-02-19T17:08:18.490Z,74.20
2018-02-19T17:10:44.709Z,74.60
2018-02-19T17:13:10.975Z,74.60
2018-02-19T17:15:37.156Z,75.90
2018-02-19T17:18:03.870Z,77.20
2018-02-19T17:20:30.131Z,77.60
2018-02-19T17:22:56.433Z,77.50
2018-02-19T17:25:22.668Z,77.20
2018-02-19T17:27:48.945Z,76.60
2018-02-19T17:30:15.231Z,77.10
2018-02-19T17:32:41.458Z,77.90
2018-02-19T17:35:07.745Z,78.50
2018-02-19T17:37:34.057Z,78.90
2018-02-19T17:40:00.335Z,78.50
2018-02-19T17:42:27.611Z,78.00
2018-02-19T17:44:53.890Z,77.30
2018-02-19T17:47:20.190Z,77.10
2018-02-19T17:49:46.487Z,77.00
2018-02-19T17:52:12.735Z,76.60
2018-02-19T17:54:39.116Z,77.10
2018-02-19T17:57:05.729Z,76.20
2018-02-19T17:59:32.033Z,76.20
2018-02-19T18:01:58.310Z,75.30
2018-02-19T18:04:24.832Z,75.60
2018-02-19T18:06:51.049Z,75.10
2018-02-19T18:09:17.296Z,75.60
2018-02-19T18:11:43.949Z,75.90
2018-02-19T18:14:10.304Z,75.90
2018-02-19T18:16:36.578Z,76.20
2018-02-19T18:19:03.223Z,75.90
2018-02-19T18:21:29.827Z,74.90
2018-02-19T18:23:56.083Z,74.90
2018-02-19T18:26:22.502Z,74.80
2018-02-19T18:28:48.726Z,75.00
2018-02-19T18:31:15.032Z,75.00
2018-02-19T18:33:41.285Z,76.30
2018-02-19T18:36:07.490Z,76.80
2018-02-19T18:38:33.821Z,76.60
2018-02-19T18:41:00.158Z,77.20
2018-02-19T18:43:26.439Z,78.00
2018-02-19T18:45:52.649Z,77.80
2018-02-19T18:48:19.923Z,77.60
2018-02-19T18:50:46.196Z,77.00
2018-02-19T18:53:12.508Z,76.60
2018-02-19T18:55:39.385Z,76.50
2018-02-19T18:58:05.623Z,75.90
2018-02-19T19:00:31.861Z,75.60
2018-02-19T19:02:58.142Z,76.00
2018-02-19T19:05:24.374Z,76.80
2018-02-19T19:08:02.752Z,77.00
2018-02-19T19:10:41.607Z,77.50
2018-02-19T19:13:07.964Z,77.50
2018-02-19T19:15:34.261Z,77.60
2018-02-19T19:18:01.293Z,77.70
2018-02-19T19:20:27.542Z,77.50
2018-02-19T19:22:53.770Z,76.80
2018-02-19T19:25:20.049Z,77.40
2018-02-19T19:27:46.997Z,78.60
2018-02-19T19:30:13.300Z,78.50
2018-02-19T19:32:40.445Z,78.40
2018-02-19T19:35:06.720Z,77.60
2018-02-19T19:37:33.407Z,77.60
2018-02-19T19:39:59.701Z,77.60
2018-02-19T19:42:26.578Z,77.40
2018-02-19T19:44:53.992Z,77.00
2018-02-19T19:47:20.254Z,76.80
2018-02-19T19:49:46.488Z,77.30
2018-02-19T19:52:12.805Z,78.40
2018-02-19T19:54:39.231Z,78.70
2018-02-19T19:57:06.684Z,77.70
2018-02-19T19:59:32.920Z,77.50
2018-02-19T20:01:59.236Z,75.90
2018-02-19T20:04:25.528Z,76.60
2018-02-19T20:06:51.757Z,77.20
2018-02-19T20:09:18.010Z,76.90
2018-02-19T20:11:44.363Z,77.20
2018-02-19T20:14:11.038Z,77.50
2018-02-19T20:16:37.324Z,77.50
2018-02-19T20:19:03.685Z,77.40
2018-02-19T20:21:29.921Z,76.70
2018-02-19T20:23:56.220Z,76.30
2018-02-19T20:26:22.550Z,75.90
2018-02-19T20:28:48.809Z,76.20
2018-02-19T20:31:15.084Z,76.00
2018-02-19T20:33:41.420Z,76.30
2018-02-19T20:36:08.083Z,77.40
2018-02-19T20:38:34.461Z,77.40
2018-02-19T20:41:00.810Z,77.40
2018-02-19T20:43:27.096Z,76.60
2018-02-19T20:45:53.452Z,75.90
2018-02-19T20:48:20.431Z,76.30
2018-02-19T20:50:46.764Z,76.90
2018-02-19T20:53:13.064Z,77.20
2018-02-19T20:55:40.760Z,75.70
2018-02-19T20:58:07.008Z,75.70
2018-02-19T21:00:33.297Z,75.20
2018-02-19T21:02:59.722Z,75.40
2018-02-19T21:05:25.961Z,75.20
2018-02-19T21:07:52.227Z,75.30
2018-02-19T21:10:18.564Z,75.80
2018-02-19T21:12:46.254Z,75.30
2018-02-19T21:15:12.545Z,75.30
2018-02-19T21:17:39.829Z,75.70
2018-02-19T21:20:07.877Z,76.40
2018-02-19T21:22:34.860Z,75.80
2018-02-19T21:25:01.202Z,76.80
2018-02-19T21:27:27.847Z,77.40
2018-02-19T21:29:54.536Z,77.10
2018-02-19T21:32:20.755Z,77.10
2018-02-19T21:34:47.016Z,76.90
2018-02-19T21:37:13.234Z,77.30
2018-02-19T21:39:39.523Z,77.20
2018-02-19T21:42:05.781Z,76.70
2018-02-19T21:44:32.034Z,76.60
2018-02-19T21:46:58.267Z,76.50
2018-02-19T21:49:24.487Z,77.10
2018-02-19T21:51:50.688Z,76.90
2018-02-19T21:54:17.016Z,75.30
2018-02-19T21:56:43.295Z,74.80
2018-02-19T21:59:09.902Z,75.90
2018-02-19T22:01:36.144Z,76.00
2018-02-19T22:04:02.374Z,76.50
2018-02-19T22:06:28.625Z,77.30
2018-02-19T22:08:54.916Z,78.50
2018-02-19T22:11:21.153Z,78.50
2018-02-19T22:13:47.448Z,78.30
2018-02-19T22:16:13.798Z,77.90
2018-02-19T22:18:40.984Z,77.70
2018-02-19T22:21:07.662Z,78.10
2018-02-19T22:23:33.985Z,78.10
2018-02-19T22:26:00.331Z,77.90
2018-02-19T22:28:26.601Z,78.40
2018-02-19T22:30:53.193Z,78.10
2018-02-19T22:33:19.426Z,78.10
2018-02-19T22:35:45.761Z,77.30
2018-02-19T22:38:12.006Z,77.50
2018-02-19T22:40:38.275Z,77.60
2018-02-19T22:43:04.564Z,77.40
2018-02-19T22:45:30.848Z,77.50
2018-02-19T22:47:57.064Z,77.60
2018-02-19T22:50:23.672Z,77.80
2018-02-19T22:52:49.912Z,77.50
2018-02-19T22:55:16.497Z,77.90
2018-02-19T22:57:42.821Z,77.90
2018-02-19T23:00:09.060Z,78.30
2018-02-19T23:02:35.294Z,77.80
2018-02-19T23:05:01.681Z,78.80
2018-02-19T23:07:27.879Z,79.30
2018-02-19T23:09:54.130Z,79.70
2018-02-19T23:12:20.839Z,79.10
2018-02-19T23:14:47.058Z,79.10
2018-02-19T23:17:13.257Z,79.00
2018-02-19T23:19:39.493Z,79.00
2018-02-19T23:22:05.714Z,79.40
2018-02-19T23:24:31.919Z,78.90
2018-02-19T23:26:58.159Z,78.50
2018-02-19T23:29:24.378Z,78.40
2018-02-19T23:31:50.678Z,78.70
2018-02-19T23:34:16.955Z,78.60
2018-02-19T23:36:43.201Z,78.60
2018-02-19T23:39:09.474Z,78.70
2018-02-19T23:41:35.804Z,78.70
2018-02-19T23:44:02.474Z,78.20
2018-02-19T23:46:28.829Z,78.20
2018-02-19T23:48:55.032Z,78.30
2018-02-19T23:51:21.203Z,78.50
2018-02-19T23:53:47.434Z,78.50
2018-02-19T23:56:13.606Z,78.50
2018-02-19T23:58:39.916Z,78.20
